Time;durP1;ratioP1;P1;durP2;ratioP2;P2;SDS_P1;SDS_P2;PMS_P1;PMS_P2;Temp;Humidity;BMP_temperature;BMP_pressure;BME280_temperature;BME280_humidity;BME280_pressure;Samples;Min_cycle;Max_cycle;Signal;HPM_P1;HPM_P2
2022/06/15 00:01:56;;;;;;;;;;;;;;;;;;6100969;23;7114;-60
2022/06/15 00:04:40;;;;;;;;;;;;;;;;;;6098838;23;7157;-60
2022/06/15 00:07:06;;;;;;;;;;;;;;;;;;6071777;23;6970;-60
2022/06/15 00:09:31;;;;;;;;;;;;;;;;;;6072063;23;7403;-60
2022/06/15 00:12:04;;;;;;;;;;;;;;;;;;6072336;23;6951;-57
2022/06/15 00:14:30;;;;;;;;;;;;;;;;;;6071719;23;7115;-56
2022/06/15 00:16:56;;;;;;;;;;;;;;;;;;6073364;23;7198;-57
2022/06/15 00:19:22;;;;;;;;;;;;;;;;;;6072728;23;6922;-56
2022/06/15 00:24:51;;;;;;;;;;;;;;;;;;6071047;23;6670;-56
2022/06/15 00:27:16;;;;;;;;;;;;;;;;;;6073219;23;6835;-56
2022/06/15 00:29:42;;;;;;;;;;;;;;;;;;6071344;23;7031;-56
2022/06/15 00:32:07;;;;;;;;;;;;;;;;;;6071574;23;7065;-57
2022/06/15 00:34:36;;;;;;;;;;;;;;;;;;6070997;23;6799;-56
2022/06/15 00:37:02;;;;;;;;;;;;;;;;;;6072913;23;7128;-57
2022/06/15 00:39:28;;;;;;;;;;;;;;;;;;6070937;23;7158;-56
2022/06/15 00:42:09;;;;;;;;;;;;;;;;;;6072423;23;7387;-57
2022/06/15 00:44:39;;;;;;;;;;;;;;;;;;6072240;23;6983;-57
2022/06/15 00:47:05;;;;;;;;;;;;;;;;;;6071155;23;6854;-57
2022/06/15 00:49:35;;;;;;;;;;;;;;;;;;6071238;23;7044;-57
2022/06/15 00:52:18;;;;;;;;;;;;;;;;;;6071227;23;7188;-57
2022/06/15 00:54:46;;;;;;;;;;;;;;;;;;6071273;23;7134;-57
2022/06/15 00:57:22;;;;;;;;;;;;;;;;;;6071414;23;7050;-56
2022/06/15 01:00:03;;;;;;;;;;;;;;;;;;6072106;23;6966;-59
2022/06/15 01:02:29;;;;;;;;;;;;;;;;;;6058705;23;7075;-82
2022/06/15 01:04:58;;;;;;;;;;;;;;;;;;6076676;23;6980;-83
2022/06/15 01:07:42;;;;;;;;;;;;;;;;;;6074430;23;7028;-82
2022/06/15 01:10:32;;;;;;;;;;;;;;;;;;6074977;23;7097;-83
2022/06/15 01:13:06;;;;;;;;;;;;;;;;;;6098934;23;8325;-83
2022/06/15 01:15:55;;;;;;;;;;;;;;;;;;6074603;23;8472;-82
2022/06/15 01:18:24;;;;;;;;;;;;;;;;;;6074870;23;8506;-83
2022/06/15 01:20:49;;;;;;;;;;;;;;;;;;6075171;23;8490;-83
2022/06/15 01:23:14;;;;;;;;;;;;;;;;;;6074088;23;8442;-83
2022/06/15 01:25:45;;;;;;;;;;;;;;;;;;6074873;23;7015;-83
2022/06/15 01:28:26;;;;;;;;;;;;;;;;;;6074243;23;7018;-82
2022/06/15 01:30:51;;;;;;;;;;;;;;;;;;6074519;23;7203;-82
2022/06/15 01:33:29;;;;;;;;;;;;;;;;;;6074212;23;8714;-83
2022/06/15 01:36:09;;;;;;;;;;;;;;;;;;6074030;23;8406;-82
2022/06/15 01:38:38;;;;;;;;;;;;;;;;;;6074301;23;7172;-83
2022/06/15 01:41:09;;;;;;;;;;;;;;;;;;6074750;23;7159;-83
2022/06/15 01:43:43;;;;;;;;;;;;;;;;;;6074153;23;7014;-83
2022/06/15 01:46:10;;;;;;;;;;;;;;;;;;6074515;23;7038;-82
2022/06/15 01:48:38;;;;;;;;;;;;;;;;;;6074628;23;8397;-83
2022/06/15 01:51:09;;;;;;;;;;;;;;;;;;6074594;23;7198;-82
2022/06/15 01:53:37;;;;;;;;;;;;;;;;;;6074625;23;8320;-83
2022/06/15 01:56:08;;;;;;;;;;;;;;;;;;6074432;23;8528;-83
2022/06/15 01:58:36;;;;;;;;;;;;;;;;;;6074649;23;7025;-82
2022/06/15 02:01:08;;;;;;;;;;;;;;;;;;6074236;23;8406;-82
2022/06/15 02:04:00;;;;;;;;;;;;;;;;;;6073859;23;8264;-82
2022/06/15 02:06:33;;;;;;;;;;;;;;;;;;6041702;23;7028;-82
2022/06/15 02:08:59;;;;;;;;;;;;;;;;;;6073794;23;8380;-82
2022/06/15 02:11:31;;;;;;;;;;;;;;;;;;6073866;23;7197;-82
2022/06/15 02:14:11;;;;;;;;;;;;;;;;;;6074096;23;7019;-83
2022/06/15 02:16:52;;;;;;;;;;;;;;;;;;6074685;23;7321;-83
2022/06/15 02:19:20;;;;;;;;;;;;;;;;;;6074565;23;7126;-79
2022/06/15 02:21:50;;;;;;;;;;;;;;;;;;6073846;23;7071;-79
2022/06/15 02:24:19;;;;;;;;;;;;;;;;;;6074401;23;7404;-79
2022/06/15 02:26:45;;;;;;;;;;;;;;;;;;6074166;23;7035;-80
2022/06/15 02:29:18;;;;;;;;;;;;;;;;;;6074344;23;7155;-79
2022/06/15 02:31:44;;;;;;;;;;;;;;;;;;6074033;23;7049;-80
2022/06/15 02:34:11;;;;;;;;;;;;;;;;;;6073616;23;7023;-78
2022/06/15 02:36:38;;;;;;;;;;;;;;;;;;6073819;23;8343;-79
2022/06/15 02:39:05;;;;;;;;;;;;;;;;;;6073655;23;7013;-79
2022/06/15 02:41:31;;;;;;;;;;;;;;;;;;6074261;23;8938;-78
2022/06/15 02:43:59;;;;;;;;;;;;;;;;;;6073966;23;9136;-79
2022/06/15 02:46:26;;;;;;;;;;;;;;;;;;6073901;23;7058;-80
2022/06/15 02:48:53;;;;;;;;;;;;;;;;;;6074139;23;8382;-79
2022/06/15 02:51:37;;;;;;;;;;;;;;;;;;6073898;23;7152;-79
2022/06/15 02:54:11;;;;;;;;;;;;;;;;;;6074036;23;8391;-82
2022/06/15 02:56:38;;;;;;;;;;;;;;;;;;6074650;23;8683;-81
2022/06/15 02:59:06;;;;;;;;;;;;;;;;;;6075836;23;8385;-82
2022/06/15 03:01:34;;;;;;;;;;;;;;;;;;6076070;23;8852;-82
2022/06/15 03:04:00;;;;;;;;;;;;;;;;;;6074928;23;8587;-82
2022/06/15 03:06:27;;;;;;;;;;;;;;;;;;6075400;23;8365;-82
2022/06/15 03:08:53;;;;;;;;;;;;;;;;;;6076140;23;7242;-82
2022/06/15 03:11:20;;;;;;;;;;;;;;;;;;6075066;23;8300;-81
2022/06/15 03:13:45;;;;;;;;;;;;;;;;;;6075839;23;8381;-82
2022/06/15 03:16:10;;;;;;;;;;;;;;;;;;6075386;23;7020;-82
2022/06/15 03:18:36;;;;;;;;;;;;;;;;;;6075636;23;8484;-82
2022/06/15 03:21:02;;;;;;;;;;;;;;;;;;6076036;23;8411;-82
2022/06/15 03:23:30;;;;;;;;;;;;;;;;;;6075459;23;8586;-82
2022/06/15 03:25:57;;;;;;;;;;;;;;;;;;6076563;23;7025;-82
2022/06/15 03:28:22;;;;;;;;;;;;;;;;;;6075342;23;8716;-82
2022/06/15 03:30:49;;;;;;;;;;;;;;;;;;6075376;23;8723;-82
2022/06/15 03:33:15;;;;;;;;;;;;;;;;;;6075625;23;7336;-82
2022/06/15 03:35:41;;;;;;;;;;;;;;;;;;6075377;23;6991;-82
2022/06/15 03:38:09;;;;;;;;;;;;;;;;;;6075261;23;7171;-82
2022/06/15 03:40:35;;;;;;;;;;;;;;;;;;6075456;23;7111;-82
2022/06/15 03:43:00;;;;;;;;;;;;;;;;;;6075596;23;8259;-82
2022/06/15 03:45:26;;;;;;;;;;;;;;;;;;6075045;23;8670;-81
2022/06/15 03:47:55;;;;;;;;;;;;;;;;;;6075334;23;7117;-82
2022/06/15 03:50:23;;;;;;;;;;;;;;;;;;6075213;23;7121;-83
2022/06/15 03:52:49;;;;;;;;;;;;;;;;;;6075741;23;8356;-82
2022/06/15 03:55:16;;;;;;;;;;;;;;;;;;6074656;23;7235;-83
2022/06/15 03:57:41;;;;;;;;;;;;;;;;;;6075560;23;8403;-83
2022/06/15 04:00:07;;;;;;;;;;;;;;;;;;6074259;23;7144;-83
2022/06/15 04:02:33;;;;;;;;;;;;;;;;;;6061886;23;8457;-83
2022/06/15 04:04:58;;;;;;;;;;;;;;;;;;6041042;23;9204;-83
2022/06/15 04:10:13;;;;;;;;;;;;;;;;;;6042710;23;6796;-83
2022/06/15 04:12:38;;;;;;;;;;;;;;;;;;6041293;23;8618;-83
2022/06/15 04:15:05;;;;;;;;;;;;;;;;;;6041554;23;6980;-83
2022/06/15 04:17:31;;;;;;;;;;;;;;;;;;6041075;23;7035;-83
2022/06/15 04:22:41;;;;;;;;;;;;;;;;;;6042432;23;7430;-83
2022/06/15 04:25:07;;;;;;;;;;;;;;;;;;6041385;23;7423;-83
2022/06/15 04:27:33;;;;;;;;;;;;;;;;;;6041564;23;7134;-83
2022/06/15 04:29:59;;;;;;;;;;;;;;;;;;6041554;23;7184;-83
2022/06/15 04:32:24;;;;;;;;;;;;;;;;;;6040922;23;7069;-83
2022/06/15 04:34:50;;;;;;;;;;;;;;;;;;6041713;23;7197;-83
2022/06/15 04:37:16;;;;;;;;;;;;;;;;;;6041979;23;8358;-83
2022/06/15 04:39:42;;;;;;;;;;;;;;;;;;6040730;23;8344;-83
2022/06/15 04:42:08;;;;;;;;;;;;;;;;;;6041012;23;7023;-83
2022/06/15 04:44:34;;;;;;;;;;;;;;;;;;6041388;23;8446;-83
2022/06/15 04:47:01;;;;;;;;;;;;;;;;;;6041533;23;7437;-83
2022/06/15 04:49:27;;;;;;;;;;;;;;;;;;6041404;23;7039;-83
2022/06/15 04:51:52;;;;;;;;;;;;;;;;;;6041514;23;7131;-83
2022/06/15 04:54:18;;;;;;;;;;;;;;;;;;6041329;23;7010;-83
2022/06/15 04:56:43;;;;;;;;;;;;;;;;;;6040864;23;7074;-84
2022/06/15 04:59:09;;;;;;;;;;;;;;;;;;6041037;23;8441;-83
2022/06/15 05:01:35;;;;;;;;;;;;;;;;;;6041067;23;6991;-84
2022/06/15 05:04:00;;;;;;;;;;;;;;;;;;6040453;23;7194;-83
2022/06/15 05:06:32;;;;;;;;;;;;;;;;;;6041390;23;9079;-83
2022/06/15 05:08:57;;;;;;;;;;;;;;;;;;6041412;23;7035;-83
2022/06/15 05:11:23;;;;;;;;;;;;;;;;;;6040999;23;7167;-84
2022/06/15 05:13:48;;;;;;;;;;;;;;;;;;6040896;23;7112;-83
2022/06/15 05:16:14;;;;;;;;;;;;;;;;;;6041371;23;7138;-83
2022/06/15 05:18:40;;;;;;;;;;;;;;;;;;6041019;23;8264;-84
2022/06/15 05:21:05;;;;;;;;;;;;;;;;;;6040598;23;8279;-83
2022/06/15 05:23:31;;;;;;;;;;;;;;;;;;6040881;23;7512;-84
2022/06/15 05:26:00;;;;;;;;;;;;;;;;;;6041017;23;8352;-84
2022/06/15 05:28:26;;;;;;;;;;;;;;;;;;6040949;23;8758;-84
2022/06/15 05:31:01;;;;;;;;;;;;;;;;;;6040475;23;7488;-84
2022/06/15 05:33:27;;;;;;;;;;;;;;;;;;6040826;23;7153;-84
2022/06/15 05:35:52;;;;;;;;;;;;;;;;;;6034600;23;7025;-85
2022/06/15 05:38:18;;;;;;;;;;;;;;;;;;6038354;23;7142;-85
2022/06/15 05:40:43;;;;;;;;;;;;;;;;;;6039904;23;8249;-84
2022/06/15 05:43:09;;;;;;;;;;;;;;;;;;6039082;23;6906;-84
2022/06/15 05:45:34;;;;;;;;;;;;;;;;;;6040086;23;7158;-84
2022/06/15 05:48:00;;;;;;;;;;;;;;;;;;6038517;23;8322;-85
2022/06/15 05:50:25;;;;;;;;;;;;;;;;;;6038795;23;8366;-85
2022/06/15 05:52:51;;;;;;;;;;;;;;;;;;6038947;23;7218;-85
2022/06/15 05:55:16;;;;;;;;;;;;;;;;;;6039226;23;7222;-85
2022/06/15 05:57:42;;;;;;;;;;;;;;;;;;6038991;23;8366;-85
2022/06/15 06:00:09;;;;;;;;;;;;;;;;;;6038719;23;8730;-85
2022/06/15 06:02:35;;;;;;;;;;;;;;;;;;6039084;23;7267;-85
2022/06/15 06:05:00;;;;;;;;;;;;;;;;;;6039073;23;7091;-85
2022/06/15 06:07:26;;;;;;;;;;;;;;;;;;6039274;23;8325;-85
2022/06/15 06:09:52;;;;;;;;;;;;;;;;;;6039020;23;8293;-84
2022/06/15 06:12:17;;;;;;;;;;;;;;;;;;6039874;23;7006;-81
2022/06/15 06:14:43;;;;;;;;;;;;;;;;;;6039537;23;6915;-84
2022/06/15 06:17:09;;;;;;;;;;;;;;;;;;6038173;23;8627;-84
2022/06/15 06:19:35;;;;;;;;;;;;;;;;;;6038038;23;7135;-84
2022/06/15 06:22:00;;;;;;;;;;;;;;;;;;6039356;23;8370;-84
2022/06/15 06:24:26;;;;;;;;;;;;;;;;;;6039357;23;6987;-84
2022/06/15 06:26:58;;;;;;;;;;;;;;;;;;6038568;23;8472;-83
2022/06/15 06:29:29;;;;;;;;;;;;;;;;;;6038702;23;8391;-84
2022/06/15 06:31:58;;;;;;;;;;;;;;;;;;6038821;23;8784;-84
2022/06/15 06:34:24;;;;;;;;;;;;;;;;;;6041471;23;7442;-84
2022/06/15 06:36:49;;;;;;;;;;;;;;;;;;6041798;23;7103;-84
2022/06/15 06:39:18;;;;;;;;;;;;;;;;;;6040046;23;8598;-83
2022/06/15 06:41:44;;;;;;;;;;;;;;;;;;6041623;23;8446;-84
2022/06/15 06:44:10;;;;;;;;;;;;;;;;;;6042466;23;7150;-84
2022/06/15 06:46:37;;;;;;;;;;;;;;;;;;6042425;23;6994;-84
2022/06/15 06:49:07;;;;;;;;;;;;;;;;;;6042049;23;7175;-84
2022/06/15 06:51:35;;;;;;;;;;;;;;;;;;6041604;23;7043;-84
2022/06/15 06:54:01;;;;;;;;;;;;;;;;;;6041315;23;8269;-83
2022/06/15 06:56:27;;;;;;;;;;;;;;;;;;6042365;23;7026;-83
2022/06/15 06:58:52;;;;;;;;;;;;;;;;;;6042265;23;9119;-83
2022/06/15 07:01:18;;;;;;;;;;;;;;;;;;6042066;23;7192;-83
2022/06/15 07:03:44;;;;;;;;;;;;;;;;;;6041546;23;7045;-83
2022/06/15 07:06:10;;;;;;;;;;;;;;;;;;6042914;23;7172;-83
2022/06/15 07:08:39;;;;;;;;;;;;;;;;;;6042310;23;7166;-84
2022/06/15 07:11:09;;;;;;;;;;;;;;;;;;6042055;23;7044;-84
2022/06/15 07:13:34;;;;;;;;;;;;;;;;;;6042297;23;8308;-84
2022/06/15 07:16:04;;;;;;;;;;;;;;;;;;6041755;23;8534;-84
2022/06/15 07:18:30;;;;;;;;;;;;;;;;;;6043632;23;7057;-83
2022/06/15 07:21:00;;;;;;;;;;;;;;;;;;6042106;23;8351;-84
2022/06/15 07:23:26;;;;;;;;;;;;;;;;;;6042000;23;8549;-84
2022/06/15 07:25:51;;;;;;;;;;;;;;;;;;6042587;23;8231;-83
2022/06/15 07:28:17;;;;;;;;;;;;;;;;;;6041977;23;8568;-83
2022/06/15 07:30:43;;;;;;;;;;;;;;;;;;6041828;23;8738;-84
2022/06/15 07:33:08;;;;;;;;;;;;;;;;;;6042751;23;7021;-84
2022/06/15 07:35:36;;;;;;;;;;;;;;;;;;6042025;23;7052;-84
2022/06/15 07:38:01;;;;;;;;;;;;;;;;;;6041385;23;7187;-83
2022/06/15 07:40:27;;;;;;;;;;;;;;;;;;6042207;23;8680;-83
2022/06/15 07:42:54;;;;;;;;;;;;;;;;;;6041792;23;7043;-84
2022/06/15 07:45:22;;;;;;;;;;;;;;;;;;6042041;23;8646;-84
2022/06/15 07:50:32;;;;;;;;;;;;;;;;;;6042766;23;6890;-83
2022/06/15 07:52:58;;;;;;;;;;;;;;;;;;6041637;23;8461;-84
2022/06/15 07:55:27;;;;;;;;;;;;;;;;;;6041760;23;8371;-84
2022/06/15 07:57:52;;;;;;;;;;;;;;;;;;6041740;23;8708;-83
2022/06/15 08:00:20;;;;;;;;;;;;;;;;;;6041706;23;8680;-83
2022/06/15 08:02:46;;;;;;;;;;;;;;;;;;6041329;23;8383;-84
2022/06/15 08:05:12;;;;;;;;;;;;;;;;;;6041198;23;8377;-83
2022/06/15 08:07:38;;;;;;;;;;;;;;;;;;6040813;23;8427;-84
2022/06/15 08:10:05;;;;;;;;;;;;;;;;;;6041293;23;8379;-85
2022/06/15 08:12:31;;;;;;;;;;;;;;;;;;6040550;23;7060;-84
2022/06/15 08:14:58;;;;;;;;;;;;;;;;;;6041016;23;7227;-84
2022/06/15 08:17:30;;;;;;;;;;;;;;;;;;6042092;23;8297;-84
2022/06/15 08:20:00;;;;;;;;;;;;;;;;;;6041435;23;8804;-84
2022/06/15 08:22:27;;;;;;;;;;;;;;;;;;6040986;23;7066;-86
2022/06/15 08:24:54;;;;;;;;;;;;;;;;;;6040481;23;7138;-87
2022/06/15 08:27:21;;;;;;;;;;;;;;;;;;6042038;23;7418;-87
2022/06/15 08:29:48;;;;;;;;;;;;;;;;;;6040903;23;8477;-86
2022/06/15 08:32:15;;;;;;;;;;;;;;;;;;6041552;23;7322;-86
2022/06/15 08:34:42;;;;;;;;;;;;;;;;;;6040788;23;8733;-85
2022/06/15 08:37:11;;;;;;;;;;;;;;;;;;6040966;23;9193;-87
2022/06/15 08:39:37;;;;;;;;;;;;;;;;;;6041660;23;7141;-85
2022/06/15 08:42:09;;;;;;;;;;;;;;;;;;6040813;23;7033;-86
2022/06/15 08:44:50;;;;;;;;;;;;;;;;;;6041106;23;7154;-85
2022/06/15 08:47:15;;;;;;;;;;;;;;;;;;6040939;23;8699;-86
2022/06/15 08:50:06;;;;;;;;;;;;;;;;;;6040309;23;7477;-85
2022/06/15 08:52:34;;;;;;;;;;;;;;;;;;6041137;23;7085;-85
2022/06/15 08:55:07;;;;;;;;;;;;;;;;;;6040123;23;7150;-85
2022/06/15 08:57:48;;;;;;;;;;;;;;;;;;6040823;23;8512;-85
2022/06/15 09:00:35;;;;;;;;;;;;;;;;;;6040957;23;7034;-85
2022/06/15 09:03:19;;;;;;;;;;;;;;;;;;6040665;23;8735;-85
2022/06/15 09:05:53;;;;;;;;;;;;;;;;;;6040694;23;7092;-85
2022/06/15 09:08:27;;;;;;;;;;;;;;;;;;6041118;23;8095;-85
2022/06/15 09:11:11;;;;;;;;;;;;;;;;;;6041051;23;8370;-85
2022/06/15 09:13:40;;;;;;;;;;;;;;;;;;6040855;23;8411;-86
2022/06/15 09:16:08;;;;;;;;;;;;;;;;;;6040747;23;8411;-86
2022/06/15 09:19:08;;;;;;;;;;;;;;;;;;6040294;23;7027;-86
2022/06/15 09:21:50;;;;;;;;;;;;;;;;;;5994476;23;7242;-86
2022/06/15 09:24:26;;;;;;;;;;;;;;;;;;6040598;23;7169;-86
2022/06/15 09:26:54;;;;;;;;;;;;;;;;;;6040880;23;8452;-86
2022/06/15 09:29:31;;;;;;;;;;;;;;;;;;6040677;23;7411;-86
2022/06/15 09:32:01;;;;;;;;;;;;;;;;;;6040063;23;7050;-87
2022/06/15 09:34:41;;;;;;;;;;;;;;;;;;6040413;23;8474;-88
2022/06/15 09:37:17;;;;;;;;;;;;;;;;;;6040556;23;7249;-86
2022/06/15 09:39:43;;;;;;;;;;;;;;;;;;6040000;23;8787;-86
2022/06/15 09:42:21;;;;;;;;;;;;;;;;;;6041129;23;7059;-86
2022/06/15 09:44:55;;;;;;;;;;;;;;;;;;6040647;23;7046;-85
2022/06/15 09:47:39;;;;;;;;;;;;;;;;;;6041231;23;8410;-88
2022/06/15 09:50:31;;;;;;;;;;;;;;;;;;6040155;23;8393;-85
2022/06/15 09:52:56;;;;;;;;;;;;;;;;;;6036301;23;8370;-86
2022/06/15 09:55:36;;;;;;;;;;;;;;;;;;6040005;23;8510;-86
2022/06/15 09:58:05;;;;;;;;;;;;;;;;;;6040599;23;8621;-85
2022/06/15 10:00:31;;;;;;;;;;;;;;;;;;6040768;23;9259;-85
2022/06/15 10:03:05;;;;;;;;;;;;;;;;;;6039898;23;7063;-87
2022/06/15 10:05:36;;;;;;;;;;;;;;;;;;6041258;23;8452;-85
2022/06/15 10:08:05;;;;;;;;;;;;;;;;;;6043194;23;7154;-86
2022/06/15 10:10:33;;;;;;;;;;;;;;;;;;6043239;23;8400;-85
2022/06/15 10:13:24;;;;;;;;;;;;;;;;;;6042470;23;7054;-84
2022/06/15 10:15:55;;;;;;;;;;;;;;;;;;6042331;23;8431;-84
2022/06/15 10:18:39;;;;;;;;;;;;;;;;;;6036436;23;8697;-82
2022/06/15 10:21:25;;;;;;;;;;;;;;;;;;6039863;23;8433;-81
2022/06/15 10:24:04;;;;;;;;;;;;;;;;;;6037446;23;7449;-81
2022/06/15 10:26:29;;;;;;;;;;;;;;;;;;6039666;23;8499;-86
2022/06/15 10:28:56;;;;;;;;;;;;;;;;;;6040960;23;8070;-85
2022/06/15 10:31:28;;;;;;;;;;;;;;;;;;6041227;23;7037;-86
2022/06/15 10:33:55;;;;;;;;;;;;;;;;;;6040996;23;7074;-86
2022/06/15 10:36:36;;;;;;;;;;;;;;;;;;6040991;23;7154;-87
2022/06/15 10:39:13;;;;;;;;;;;;;;;;;;6042458;23;8742;-86
2022/06/15 10:41:46;;;;;;;;;;;;;;;;;;6042371;23;8601;-86
2022/06/15 10:44:27;;;;;;;;;;;;;;;;;;6042464;23;8317;-86
2022/06/15 10:46:57;;;;;;;;;;;;;;;;;;6042558;23;7135;-86
2022/06/15 10:49:24;;;;;;;;;;;;;;;;;;6040173;23;7170;-90
2022/06/15 10:51:50;;;;;;;;;;;;;;;;;;6040985;23;8658;-87
2022/06/15 10:54:31;;;;;;;;;;;;;;;;;;6041803;23;7069;-87
2022/06/15 11:03:01;;;;;;;;;;;;;;;;;;6066698;23;6930;-87
2022/06/15 11:05:28;;;;;;;;;;;;;;;;;;6075261;23;8751;-86
2022/06/15 11:07:57;;;;;;;;;;;;;;;;;;6075383;23;9103;-86
2022/06/15 11:10:31;;;;;;;;;;;;;;;;;;6074998;23;8757;-86
2022/06/15 11:13:00;;;;;;;;;;;;;;;;;;6075127;23;8826;-87
2022/06/15 11:18:38;;;;;;;;;;;;;;;;;;6052782;23;7525;-86
2022/06/15 11:21:07;;;;;;;;;;;;;;;;;;6075718;23;9387;-87
2022/06/15 11:23:48;;;;;;;;;;;;;;;;;;6075137;23;8838;-86
2022/06/15 11:29:18;;;;;;;;;;;;;;;;;;6100512;23;6808;-87
2022/06/15 11:31:44;;;;;;;;;;;;;;;;;;6074902;23;8705;-86
2022/06/15 11:34:15;;;;;;;;;;;;;;;;;;6074814;23;8423;-86
2022/06/15 11:36:51;;;;;;;;;;;;;;;;;;6075023;23;7497;-86
2022/06/15 11:39:22;;;;;;;;;;;;;;;;;;6074728;23;8393;-86
2022/06/15 11:41:56;;;;;;;;;;;;;;;;;;6074642;23;8322;-87
2022/06/15 11:44:27;;;;;;;;;;;;;;;;;;6075300;23;8776;-86
2022/06/15 11:46:58;;;;;;;;;;;;;;;;;;6075268;23;7150;-86
2022/06/15 11:49:27;;;;;;;;;;;;;;;;;;6075501;23;7034;-87
2022/06/15 11:52:05;;;;;;;;;;;;;;;;;;6075270;23;7052;-86
2022/06/15 11:54:39;;;;;;;;;;;;;;;;;;6075241;23;8420;-87
2022/06/15 11:57:14;;;;;;;;;;;;;;;;;;6074657;23;7363;-87
2022/06/15 11:59:58;;;;;;;;;;;;;;;;;;6075264;23;8597;-87
2022/06/15 12:02:44;;;;;;;;;;;;;;;;;;6074742;23;8735;-87
2022/06/15 12:05:10;;;;;;;;;;;;;;;;;;6074551;23;8500;-86
2022/06/15 12:08:02;;;;;;;;;;;;;;;;;;6074702;23;7405;-85
2022/06/15 12:10:51;;;;;;;;;;;;;;;;;;6041476;23;7271;-86
2022/06/15 12:13:25;;;;;;;;;;;;;;;;;;6063007;23;7159;-86
2022/06/15 12:15:56;;;;;;;;;;;;;;;;;;6074516;23;7151;-85
2022/06/15 12:18:46;;;;;;;;;;;;;;;;;;6074975;23;7087;-86
2022/06/15 12:21:26;;;;;;;;;;;;;;;;;;6075075;23;8916;-86
2022/06/15 12:24:01;;;;;;;;;;;;;;;;;;6074988;23;7212;-86
2022/06/15 12:26:26;;;;;;;;;;;;;;;;;;6074506;23;8296;-87
2022/06/15 12:29:10;;;;;;;;;;;;;;;;;;6074381;23;7413;-87
2022/06/15 12:31:42;;;;;;;;;;;;;;;;;;6074182;23;7134;-86
2022/06/15 12:34:18;;;;;;;;;;;;;;;;;;6074636;23;8345;-87
2022/06/15 12:36:53;;;;;;;;;;;;;;;;;;6074525;23;7045;-87
2022/06/15 12:39:19;;;;;;;;;;;;;;;;;;6074403;23;8419;-86
2022/06/15 12:44:35;;;;;;;;;;;;;;;;;;6100190;23;6831;-87
2022/06/15 12:47:02;;;;;;;;;;;;;;;;;;6074823;23;7269;-87
2022/06/15 12:49:40;;;;;;;;;;;;;;;;;;6074605;23;7224;-87
2022/06/15 12:52:06;;;;;;;;;;;;;;;;;;6074042;23;8534;-86
2022/06/15 12:54:50;;;;;;;;;;;;;;;;;;6074229;23;8417;-86
2022/06/15 12:57:21;;;;;;;;;;;;;;;;;;6075813;23;8671;-86
2022/06/15 12:59:56;;;;;;;;;;;;;;;;;;6074643;23;7221;-86
2022/06/15 13:02:22;;;;;;;;;;;;;;;;;;6074204;23;8406;-86
2022/06/15 13:04:59;;;;;;;;;;;;;;;;;;6073775;23;8738;-86
2022/06/15 13:07:31;;;;;;;;;;;;;;;;;;6074048;23;7198;-86
2022/06/15 13:10:09;;;;;;;;;;;;;;;;;;6072793;23;7286;-86
2022/06/15 13:12:36;;;;;;;;;;;;;;;;;;6073952;23;8755;-86
2022/06/15 13:15:02;;;;;;;;;;;;;;;;;;6073958;23;8755;-86
2022/06/15 13:18:05;;;;;;;;;;;;;;;;;;6073925;23;7191;-86
2022/06/15 13:20:30;;;;;;;;;;;;;;;;;;6073479;23;8505;-86
2022/06/15 13:22:56;;;;;;;;;;;;;;;;;;6073267;23;8393;-86
2022/06/15 13:25:22;;;;;;;;;;;;;;;;;;6073933;23;8852;-86
2022/06/15 13:28:08;;;;;;;;;;;;;;;;;;6074136;23;8480;-86
2022/06/15 13:30:51;;;;;;;;;;;;;;;;;;6073442;23;7441;-86
2022/06/15 13:33:18;;;;;;;;;;;;;;;;;;6073673;23;8392;-85
2022/06/15 13:36:06;;;;;;;;;;;;;;;;;;6073950;23;7231;-84
2022/06/15 13:38:33;;;;;;;;;;;;;;;;;;6074082;23;8687;-85
2022/06/15 13:41:00;;;;;;;;;;;;;;;;;;6073773;23;8693;-85
2022/06/15 13:43:27;;;;;;;;;;;;;;;;;;6099321;23;7236;-85
2022/06/15 13:45:59;;;;;;;;;;;;;;;;;;6074013;23;7210;-84
2022/06/15 13:48:41;;;;;;;;;;;;;;;;;;6074797;23;8787;-85
2022/06/15 13:51:14;;;;;;;;;;;;;;;;;;6073721;23;8503;-86
2022/06/15 13:53:42;;;;;;;;;;;;;;;;;;6074141;23;8908;-84
2022/06/15 13:56:20;;;;;;;;;;;;;;;;;;6074372;23;9441;-87
2022/06/15 13:58:48;;;;;;;;;;;;;;;;;;6073855;23;8569;-85
2022/06/15 14:01:17;;;;;;;;;;;;;;;;;;6073634;23;8418;-85
2022/06/15 14:03:46;;;;;;;;;;;;;;;;;;6073502;23;7075;-77
2022/06/15 14:06:26;;;;;;;;;;;;;;;;;;6073693;23;7196;-85
2022/06/15 14:09:10;;;;;;;;;;;;;;;;;;6074209;23;9599;-85
2022/06/15 14:11:45;;;;;;;;;;;;;;;;;;6073569;23;8718;-85
2022/06/15 14:14:21;;;;;;;;;;;;;;;;;;6074764;23;7164;-86
2022/06/15 14:17:19;;;;;;;;;;;;;;;;;;6073713;23;8454;-85
2022/06/15 14:19:51;;;;;;;;;;;;;;;;;;6074104;23;8433;-85
2022/06/15 14:22:22;;;;;;;;;;;;;;;;;;6073646;23;9183;-85
2022/06/15 14:24:59;;;;;;;;;;;;;;;;;;6073999;23;7085;-85
2022/06/15 14:27:27;;;;;;;;;;;;;;;;;;6073598;23;8573;-85
2022/06/15 14:29:53;;;;;;;;;;;;;;;;;;6073391;23;8406;-85
2022/06/15 14:32:24;;;;;;;;;;;;;;;;;;6073882;23;7135;-86
2022/06/15 14:34:51;;;;;;;;;;;;;;;;;;6073688;23;8672;-88
2022/06/15 14:37:21;;;;;;;;;;;;;;;;;;6073507;23;8451;-87
2022/06/15 14:39:49;;;;;;;;;;;;;;;;;;6069081;23;8364;-86
2022/06/15 14:42:17;;;;;;;;;;;;;;;;;;6070497;23;8390;-88
2022/06/15 14:44:43;;;;;;;;;;;;;;;;;;6072076;23;8602;-87
2022/06/15 14:47:11;;;;;;;;;;;;;;;;;;6071751;23;8399;-87
2022/06/15 14:49:40;;;;;;;;;;;;;;;;;;6071805;23;8708;-90
2022/06/15 14:52:18;;;;;;;;;;;;;;;;;;6071995;23;8370;-89
2022/06/15 14:54:45;;;;;;;;;;;;;;;;;;6074279;23;8441;-89
2022/06/15 14:57:18;;;;;;;;;;;;;;;;;;6074943;23;8449;-87
2022/06/15 14:59:46;;;;;;;;;;;;;;;;;;6072636;23;7063;-82
2022/06/15 15:02:12;;;;;;;;;;;;;;;;;;6074495;23;7214;-83
2022/06/15 15:04:41;;;;;;;;;;;;;;;;;;6099569;23;8437;-82
2022/06/15 15:09:52;;;;;;;;;;;;;;;;;;6100828;23;6976;-82
2022/06/15 15:12:21;;;;;;;;;;;;;;;;;;6075343;23;8439;-81
2022/06/15 15:14:56;;;;;;;;;;;;;;;;;;6074788;23;8694;-85
2022/06/15 15:17:22;;;;;;;;;;;;;;;;;;6075837;23;8358;-86
2022/06/15 15:19:48;;;;;;;;;;;;;;;;;;6075781;23;8427;-85
2022/06/15 15:22:17;;;;;;;;;;;;;;;;;;6075156;23;7197;-88
2022/06/15 15:24:54;;;;;;;;;;;;;;;;;;6075605;23;8423;-88
2022/06/15 15:36:04;;;;;;;;;;;;;;;;;;6102907;23;6912;-86
2022/06/15 15:38:30;;;;;;;;;;;;;;;;;;6077361;23;8267;-85
2022/06/15 15:40:57;;;;;;;;;;;;;;;;;;6076613;23;7057;-86
2022/06/15 15:43:25;;;;;;;;;;;;;;;;;;6076034;23;8375;-82
2022/06/15 15:45:51;;;;;;;;;;;;;;;;;;6077224;23;8641;-90
2022/06/15 15:48:17;;;;;;;;;;;;;;;;;;6074878;23;8335;-87
2022/06/15 15:50:43;;;;;;;;;;;;;;;;;;6074419;23;7294;-86
2022/06/15 15:53:09;;;;;;;;;;;;;;;;;;6074894;23;7080;-86
2022/06/15 15:55:34;;;;;;;;;;;;;;;;;;5960500;23;12161;-87
2022/06/15 15:58:01;;;;;;;;;;;;;;;;;;6081130;23;8344;-89
2022/06/15 16:00:30;;;;;;;;;;;;;;;;;;6075893;23;8528;-87
2022/06/15 16:02:58;;;;;;;;;;;;;;;;;;6074862;23;7326;-89
2022/06/15 16:05:24;;;;;;;;;;;;;;;;;;6079865;23;7257;-89
2022/06/15 16:07:53;;;;;;;;;;;;;;;;;;6084275;23;6966;-86
2022/06/15 16:10:24;;;;;;;;;;;;;;;;;;6063818;23;7260;-87
2022/06/15 16:12:54;;;;;;;;;;;;;;;;;;6033882;23;7334;-86
2022/06/15 16:15:44;;;;;;;;;;;;;;;;;;6013043;23;7339;-86
2022/06/15 16:18:20;;;;;;;;;;;;;;;;;;6057057;23;7039;-87
2022/06/15 16:20:48;;;;;;;;;;;;;;;;;;5994200;24;6956;-90
2022/06/15 16:23:20;;;;;;;;;;;;;;;;;;5986644;23;8348;-89
2022/06/15 16:25:47;;;;;;;;;;;;;;;;;;5987694;23;8397;-90
2022/06/15 16:28:15;;;;;;;;;;;;;;;;;;5983804;23;9005;-88
2022/06/15 16:30:41;;;;;;;;;;;;;;;;;;5984330;23;8441;-89
2022/06/15 16:33:08;;;;;;;;;;;;;;;;;;5986403;23;7201;-91
2022/06/15 16:35:37;;;;;;;;;;;;;;;;;;5985048;24;7298;-92
2022/06/15 16:38:04;;;;;;;;;;;;;;;;;;5983501;24;7301;-89
2022/06/15 16:40:30;;;;;;;;;;;;;;;;;;5983595;23;9076;-88
2022/06/15 16:42:55;;;;;;;;;;;;;;;;;;5983121;23;8773;-88
2022/06/15 16:45:21;;;;;;;;;;;;;;;;;;5984399;23;7193;-90
2022/06/15 16:47:46;;;;;;;;;;;;;;;;;;5983841;24;7038;-89
2022/06/15 16:50:12;;;;;;;;;;;;;;;;;;5983377;24;8557;-89
2022/06/15 16:52:41;;;;;;;;;;;;;;;;;;5983754;23;7437;-89
2022/06/15 16:55:17;;;;;;;;;;;;;;;;;;5983721;24;7054;-88
2022/06/15 16:57:43;;;;;;;;;;;;;;;;;;6006006;23;7042;-90
2022/06/15 17:00:10;;;;;;;;;;;;;;;;;;6045672;23;8694;-90
2022/06/15 17:02:35;;;;;;;;;;;;;;;;;;6045609;23;8762;-90
2022/06/15 17:05:01;;;;;;;;;;;;;;;;;;6046258;23;8705;-90
2022/06/15 17:07:27;;;;;;;;;;;;;;;;;;6046731;23;8397;-91
2022/06/15 17:09:56;;;;;;;;;;;;;;;;;;6045613;23;7028;-90
2022/06/15 17:12:22;;;;;;;;;;;;;;;;;;6046363;23;7138;-90
2022/06/15 17:14:48;;;;;;;;;;;;;;;;;;6045339;23;7301;-91
2022/06/15 17:17:14;;;;;;;;;;;;;;;;;;6045421;23;8705;-90
2022/06/15 17:19:40;;;;;;;;;;;;;;;;;;6045517;23;7108;-89
2022/06/15 17:22:07;;;;;;;;;;;;;;;;;;6045709;23;8363;-88
2022/06/15 17:24:33;;;;;;;;;;;;;;;;;;6045662;23;8646;-89
2022/06/15 17:27:00;;;;;;;;;;;;;;;;;;6045277;23;8516;-88
2022/06/15 17:29:27;;;;;;;;;;;;;;;;;;6045414;23;7260;-89
2022/06/15 17:31:56;;;;;;;;;;;;;;;;;;6045948;23;7228;-88
2022/06/15 17:34:21;;;;;;;;;;;;;;;;;;6045248;23;7096;-90
2022/06/15 17:36:48;;;;;;;;;;;;;;;;;;6045645;23;7362;-89
2022/06/15 17:39:14;;;;;;;;;;;;;;;;;;6045480;23;7182;-88
2022/06/15 17:41:43;;;;;;;;;;;;;;;;;;6046018;23;7381;-88
2022/06/15 17:44:10;;;;;;;;;;;;;;;;;;6045876;23;7052;-89
2022/06/15 17:46:38;;;;;;;;;;;;;;;;;;6045627;23;8622;-89
2022/06/15 17:49:05;;;;;;;;;;;;;;;;;;6046021;23;7430;-89
2022/06/15 17:51:31;;;;;;;;;;;;;;;;;;6045374;23;8500;-89
2022/06/15 17:53:57;;;;;;;;;;;;;;;;;;6045457;23;8449;-90
2022/06/15 17:56:22;;;;;;;;;;;;;;;;;;6045383;23;7167;-89
2022/06/15 17:58:49;;;;;;;;;;;;;;;;;;6045727;23;7025;-90
2022/06/15 18:01:16;;;;;;;;;;;;;;;;;;6046643;23;7172;-92